VOE7CE LFBL-LFPO
Flight info
| Callsign | VOE7CE |
|---|---|
| Flight time | 0h 38m |
| Altitude | 24000 |
| Route | BALAN A34 AMB |
| Aircraft | A320/M-SDE3FGHIRWY/LB1 |
Departure
| Time | 2026-05-05 19:04 |
|---|---|
| Airport | Limoges Airport (LFBL) |
Arrival
| Time | 2026-05-05 19:43 |
|---|---|
| Airport | Paris-Orly Airport (LFPO) |
| Time | Latitude | Longitude | Altitude | Speed | Heading |
|---|---|---|---|---|---|
| 2026-05-05 18:44 | 45.86147 | 1.17721 | 1284 ft | 0 kts | 256° |
| 2026-05-05 18:55 | 45.86149 | 1.17732 | 1284 ft | 4 kts | 258° |
| 2026-05-05 18:56 | 45.86152 | 1.17764 | 1285 ft | 2 kts | 285° |
| 2026-05-05 18:56 | 45.86142 | 1.17793 | 1285 ft | 4 kts | 335° |
| 2026-05-05 18:56 | 45.86118 | 1.17796 | 1284 ft | 4 kts | 24° |
| 2026-05-05 18:56 | 45.86105 | 1.17786 | 1285 ft | 1 kts | 35° |
| 2026-05-05 18:57 | 45.86104 | 1.17785 | 1285 ft | 0 kts | 35° |
| 2026-05-05 18:59 | 45.86111 | 1.17792 | 1284 ft | 7 kts | 35° |
| 2026-05-05 19:00 | 45.86149 | 1.17842 | 1284 ft | 6 kts | 62° |
| 2026-05-05 19:00 | 45.86142 | 1.17892 | 1283 ft | 12 kts | 117° |
| 2026-05-05 19:00 | 45.86094 | 1.18001 | 1283 ft | 11 kts | 107° |
| 2026-05-05 19:00 | 45.86134 | 1.18079 | 1283 ft | 14 kts | 23° |
| 2026-05-05 19:01 | 45.86199 | 1.18140 | 1283 ft | 11 kts | 37° |
| 2026-05-05 19:01 | 45.86330 | 1.18269 | 1284 ft | 27 kts | 33° |
| 2026-05-05 19:01 | 45.86482 | 1.18413 | 1283 ft | 26 kts | 33° |
| 2026-05-05 19:01 | 45.86626 | 1.18549 | 1285 ft | 24 kts | 33° |
| 2026-05-05 19:02 | 45.86762 | 1.18677 | 1283 ft | 23 kts | 33° |
| 2026-05-05 19:02 | 45.86895 | 1.18797 | 1283 ft | 22 kts | 32° |
| 2026-05-05 19:02 | 45.87018 | 1.18915 | 1282 ft | 19 kts | 36° |
| 2026-05-05 19:02 | 45.87073 | 1.19027 | 1282 ft | 8 kts | 57° |
| 2026-05-05 19:03 | 45.87102 | 1.19030 | 1283 ft | 6 kts | 321° |
| 2026-05-05 19:03 | 45.87073 | 1.18972 | 1282 ft | 10 kts | 214° |
| 2026-05-05 19:03 | 45.87034 | 1.18929 | 1282 ft | 0 kts | 214° |
| 2026-05-05 19:04 | 45.86972 | 1.18869 | 1282 ft | 40 kts | 214° |
| 2026-05-05 19:04 | 45.86533 | 1.18453 | 1285 ft | 107 kts | 212° |
| 2026-05-05 19:04 | 45.85758 | 1.17716 | 1317 ft | 156 kts | 216° |
| 2026-05-05 19:04 | 45.84851 | 1.16839 | 2001 ft | 157 kts | 218° |
| 2026-05-05 19:05 | 45.84254 | 1.15614 | 2776 ft | 151 kts | 266° |
| 2026-05-05 19:05 | 45.84421 | 1.14126 | 3343 ft | 164 kts | 299° |
| 2026-05-05 19:05 | 45.85348 | 1.13011 | 3718 ft | 190 kts | 334° |
| 2026-05-05 19:05 | 45.86653 | 1.12306 | 4083 ft | 213 kts | 338° |
| 2026-05-05 19:06 | 45.88134 | 1.11534 | 4481 ft | 239 kts | 336° |
| 2026-05-05 19:06 | 45.89752 | 1.10639 | 5085 ft | 258 kts | 336° |
| 2026-05-05 19:06 | 45.91478 | 1.09691 | 5810 ft | 271 kts | 336° |
| 2026-05-05 19:06 | 45.93242 | 1.08723 | 6796 ft | 272 kts | 336° |
| 2026-05-05 19:07 | 45.95021 | 1.07738 | 7705 ft | 276 kts | 337° |
| 2026-05-05 19:07 | 45.96830 | 1.06734 | 8596 ft | 281 kts | 336° |
| 2026-05-05 19:07 | 45.98670 | 1.05710 | 9480 ft | 286 kts | 337° |
| 2026-05-05 19:07 | 46.00543 | 1.04661 | 10223 ft | 296 kts | 337° |
| 2026-05-05 19:08 | 46.02550 | 1.03571 | 10522 ft | 321 kts | 341° |
| 2026-05-05 19:08 | 46.04800 | 1.02918 | 11021 ft | 336 kts | 353° |
| 2026-05-05 19:08 | 46.07166 | 1.02856 | 11755 ft | 343 kts | 359° |
| 2026-05-05 19:08 | 46.09566 | 1.02882 | 12537 ft | 348 kts | 359° |
| 2026-05-05 19:09 | 46.12006 | 1.02903 | 13318 ft | 352 kts | 359° |
| 2026-05-05 19:09 | 46.14466 | 1.02924 | 14056 ft | 356 kts | 359° |
| 2026-05-05 19:09 | 46.16958 | 1.02946 | 14742 ft | 360 kts | 359° |
| 2026-05-05 19:09 | 46.19483 | 1.02972 | 15428 ft | 364 kts | 360° |
| 2026-05-05 19:10 | 46.22026 | 1.03002 | 16112 ft | 368 kts | 360° |
| 2026-05-05 19:10 | 46.24603 | 1.03033 | 16788 ft | 372 kts | 360° |
| 2026-05-05 19:10 | 46.27201 | 1.03065 | 17455 ft | 376 kts | 0° |
| 2026-05-05 19:10 | 46.29821 | 1.03098 | 18117 ft | 380 kts | 0° |
| 2026-05-05 19:11 | 46.32476 | 1.03125 | 18702 ft | 383 kts | 0° |
| 2026-05-05 19:11 | 46.35156 | 1.03147 | 19291 ft | 386 kts | 0° |
| 2026-05-05 19:11 | 46.37858 | 1.03172 | 19878 ft | 390 kts | 0° |
| 2026-05-05 19:11 | 46.40585 | 1.03201 | 20467 ft | 393 kts | 0° |
| 2026-05-05 19:12 | 46.43331 | 1.03235 | 21054 ft | 397 kts | 0° |
| 2026-05-05 19:12 | 46.46104 | 1.03270 | 21641 ft | 400 kts | 0° |
| 2026-05-05 19:12 | 46.48902 | 1.03306 | 22221 ft | 404 kts | 1° |
| 2026-05-05 19:12 | 46.51721 | 1.03342 | 22789 ft | 407 kts | 1° |
| 2026-05-05 19:13 | 46.54565 | 1.03406 | 23352 ft | 411 kts | 1° |
| 2026-05-05 19:13 | 46.57435 | 1.03516 | 23749 ft | 414 kts | 2° |
| 2026-05-05 19:13 | 46.60308 | 1.03655 | 23855 ft | 410 kts | 2° |
| 2026-05-05 19:13 | 46.63118 | 1.03798 | 23879 ft | 401 kts | 2° |
| 2026-05-05 19:14 | 46.65896 | 1.03933 | 23875 ft | 398 kts | 2° |
| 2026-05-05 19:14 | 46.68649 | 1.04059 | 23878 ft | 397 kts | 2° |
| 2026-05-05 19:14 | 46.71410 | 1.04176 | 23878 ft | 396 kts | 2° |
| 2026-05-05 19:14 | 46.74164 | 1.04288 | 23876 ft | 396 kts | 2° |
| 2026-05-05 19:15 | 46.76918 | 1.04400 | 23873 ft | 395 kts | 2° |
| 2026-05-05 19:15 | 46.79665 | 1.04513 | 23875 ft | 395 kts | 2° |
| 2026-05-05 19:15 | 46.82412 | 1.04630 | 23873 ft | 395 kts | 2° |
| 2026-05-05 19:15 | 46.85160 | 1.04746 | 23871 ft | 395 kts | 2° |
| 2026-05-05 19:16 | 46.87908 | 1.04862 | 23872 ft | 395 kts | 2° |
| 2026-05-05 19:16 | 46.90650 | 1.04979 | 23871 ft | 394 kts | 2° |
| 2026-05-05 19:16 | 46.93389 | 1.05098 | 23873 ft | 394 kts | 2° |
| 2026-05-05 19:16 | 46.96132 | 1.05219 | 23876 ft | 394 kts | 2° |
| 2026-05-05 19:17 | 46.98874 | 1.05339 | 23875 ft | 394 kts | 2° |
| 2026-05-05 19:17 | 47.01615 | 1.05462 | 23876 ft | 394 kts | 3° |
| 2026-05-05 19:17 | 47.04355 | 1.05579 | 23880 ft | 394 kts | 2° |
| 2026-05-05 19:17 | 47.07085 | 1.05662 | 23878 ft | 393 kts | 2° |
| 2026-05-05 19:18 | 47.09824 | 1.05719 | 23874 ft | 393 kts | 2° |
| 2026-05-05 19:18 | 47.12556 | 1.05762 | 23877 ft | 393 kts | 2° |
| 2026-05-05 19:18 | 47.15289 | 1.05804 | 23877 ft | 392 kts | 2° |
| 2026-05-05 19:18 | 47.18013 | 1.05850 | 23882 ft | 392 kts | 2° |
| 2026-05-05 19:19 | 47.20741 | 1.05905 | 23886 ft | 392 kts | 2° |
| 2026-05-05 19:19 | 47.23520 | 1.05971 | 23873 ft | 397 kts | 2° |
| 2026-05-05 19:19 | 47.26247 | 1.06044 | 23876 ft | 398 kts | 2° |
| 2026-05-05 19:19 | 47.29019 | 1.06120 | 23879 ft | 398 kts | 2° |
| 2026-05-05 19:20 | 47.31778 | 1.06328 | 23872 ft | 396 kts | 11° |
| 2026-05-05 19:20 | 47.34421 | 1.07337 | 23521 ft | 390 kts | 18° |
| 2026-05-05 19:20 | 47.37001 | 1.08543 | 22930 ft | 388 kts | 19° |
| 2026-05-05 19:20 | 47.39559 | 1.09783 | 22376 ft | 386 kts | 19° |
| 2026-05-05 19:21 | 47.42096 | 1.11035 | 21981 ft | 385 kts | 19° |
| 2026-05-05 19:21 | 47.44632 | 1.12290 | 21604 ft | 384 kts | 19° |
| 2026-05-05 19:21 | 47.47158 | 1.13536 | 21231 ft | 382 kts | 19° |
| 2026-05-05 19:21 | 47.49678 | 1.14769 | 20862 ft | 380 kts | 18° |
| 2026-05-05 19:22 | 47.52216 | 1.16006 | 20502 ft | 379 kts | 18° |
| 2026-05-05 19:22 | 47.54685 | 1.17208 | 20144 ft | 377 kts | 18° |
| 2026-05-05 19:22 | 47.57172 | 1.18416 | 19789 ft | 376 kts | 18° |
| 2026-05-05 19:22 | 47.59655 | 1.19621 | 19441 ft | 375 kts | 18° |
| 2026-05-05 19:23 | 47.62127 | 1.20820 | 19095 ft | 373 kts | 18° |
| 2026-05-05 19:23 | 47.63791 | 1.21631 | 18864 ft | 373 kts | 18° |
| 2026-05-05 19:23 | 47.66252 | 1.22836 | 18538 ft | 371 kts | 18° |
| 2026-05-05 19:23 | 47.68698 | 1.24037 | 18194 ft | 370 kts | 18° |
| 2026-05-05 19:24 | 47.71138 | 1.25233 | 17819 ft | 368 kts | 18° |
| 2026-05-05 19:24 | 47.72746 | 1.26021 | 17570 ft | 367 kts | 17° |
| 2026-05-05 19:24 | 47.72753 | 1.26024 | 17568 ft | 367 kts | 17° |
| 2026-05-05 19:24 | 47.74556 | 1.26873 | 17289 ft | 366 kts | 17° |
| 2026-05-05 19:25 | 47.76968 | 1.28040 | 16914 ft | 364 kts | 17° |
| 2026-05-05 19:25 | 47.79363 | 1.29226 | 16549 ft | 362 kts | 18° |
| 2026-05-05 19:25 | 47.81740 | 1.30414 | 16187 ft | 360 kts | 18° |
| 2026-05-05 19:25 | 47.84110 | 1.31599 | 15826 ft | 358 kts | 17° |
| 2026-05-05 19:26 | 47.86469 | 1.32770 | 15472 ft | 356 kts | 17° |
| 2026-05-05 19:26 | 47.88813 | 1.33927 | 15117 ft | 355 kts | 17° |
| 2026-05-05 19:26 | 47.91150 | 1.35081 | 14772 ft | 353 kts | 17° |
| 2026-05-05 19:26 | 47.93474 | 1.36230 | 14430 ft | 351 kts | 17° |
| 2026-05-05 19:27 | 47.95782 | 1.37369 | 14091 ft | 349 kts | 17° |
| 2026-05-05 19:27 | 47.98079 | 1.38505 | 13755 ft | 347 kts | 17° |
| 2026-05-05 19:27 | 48.00367 | 1.39640 | 13393 ft | 344 kts | 17° |
| 2026-05-05 19:27 | 48.02617 | 1.40761 | 13016 ft | 339 kts | 17° |
| 2026-05-05 19:28 | 48.04836 | 1.41867 | 12642 ft | 332 kts | 17° |
| 2026-05-05 19:28 | 48.06976 | 1.42934 | 12275 ft | 316 kts | 17° |
| 2026-05-05 19:28 | 48.09020 | 1.43950 | 11914 ft | 306 kts | 17° |
| 2026-05-05 19:28 | 48.11032 | 1.44947 | 11556 ft | 303 kts | 17° |
| 2026-05-05 19:29 | 48.13008 | 1.46031 | 11206 ft | 303 kts | 25° |
| 2026-05-05 19:29 | 48.14805 | 1.47666 | 10858 ft | 301 kts | 33° |
| 2026-05-05 19:29 | 48.16536 | 1.49416 | 10514 ft | 299 kts | 33° |
| 2026-05-05 19:29 | 48.18253 | 1.51151 | 10172 ft | 297 kts | 34° |
| 2026-05-05 19:30 | 48.19956 | 1.52876 | 9882 ft | 294 kts | 34° |
| 2026-05-05 19:30 | 48.21651 | 1.54592 | 9838 ft | 293 kts | 34° |
| 2026-05-05 19:30 | 48.23338 | 1.56304 | 9842 ft | 293 kts | 34° |
| 2026-05-05 19:30 | 48.25026 | 1.58020 | 9842 ft | 292 kts | 34° |
| 2026-05-05 19:31 | 48.26708 | 1.59729 | 9845 ft | 292 kts | 34° |
| 2026-05-05 19:31 | 48.28380 | 1.61428 | 9587 ft | 289 kts | 34° |
| 2026-05-05 19:31 | 48.30032 | 1.63110 | 9216 ft | 286 kts | 34° |
| 2026-05-05 19:31 | 48.31672 | 1.64783 | 8852 ft | 283 kts | 34° |
| 2026-05-05 19:32 | 48.33289 | 1.66435 | 8495 ft | 280 kts | 34° |
| 2026-05-05 19:32 | 48.34887 | 1.68070 | 8128 ft | 277 kts | 34° |
| 2026-05-05 19:32 | 48.36469 | 1.69687 | 7765 ft | 273 kts | 34° |
| 2026-05-05 19:32 | 48.38034 | 1.71288 | 7372 ft | 271 kts | 33° |
| 2026-05-05 19:33 | 48.39572 | 1.72910 | 6992 ft | 269 kts | 38° |
| 2026-05-05 19:33 | 48.41000 | 1.74694 | 6838 ft | 266 kts | 39° |
| 2026-05-05 19:33 | 48.42431 | 1.76479 | 6760 ft | 266 kts | 39° |
| 2026-05-05 19:33 | 48.43838 | 1.78233 | 6467 ft | 254 kts | 39° |
| 2026-05-05 19:34 | 48.45162 | 1.79886 | 6041 ft | 243 kts | 39° |
| 2026-05-05 19:34 | 48.46459 | 1.81504 | 5521 ft | 241 kts | 39° |
| 2026-05-05 19:34 | 48.47746 | 1.83111 | 5164 ft | 239 kts | 38° |
| 2026-05-05 19:35 | 48.50291 | 1.86285 | 4427 ft | 236 kts | 38° |
| 2026-05-05 19:35 | 48.51544 | 1.87850 | 4177 ft | 230 kts | 39° |
| 2026-05-05 19:35 | 48.52771 | 1.89388 | 4074 ft | 224 kts | 39° |
| 2026-05-05 19:35 | 48.53924 | 1.90834 | 4001 ft | 214 kts | 39° |
| 2026-05-05 19:36 | 48.55068 | 1.92273 | 4003 ft | 213 kts | 38° |
| 2026-05-05 19:36 | 48.56198 | 1.93696 | 4011 ft | 211 kts | 38° |
| 2026-05-05 19:36 | 48.57310 | 1.95093 | 4007 ft | 205 kts | 39° |
| 2026-05-05 19:36 | 48.58395 | 1.96454 | 4007 ft | 202 kts | 38° |
| 2026-05-05 19:37 | 48.59476 | 1.97812 | 4008 ft | 202 kts | 39° |
| 2026-05-05 19:37 | 48.60525 | 1.99216 | 4008 ft | 202 kts | 49° |
| 2026-05-05 19:37 | 48.61133 | 2.01121 | 4017 ft | 203 kts | 66° |
| 2026-05-05 19:37 | 48.61770 | 2.03049 | 4011 ft | 203 kts | 59° |
| 2026-05-05 19:38 | 48.62430 | 2.04867 | 4005 ft | 195 kts | 59° |
| 2026-05-05 19:38 | 48.63075 | 2.06656 | 3975 ft | 194 kts | 59° |
| 2026-05-05 19:38 | 48.63721 | 2.08458 | 3797 ft | 192 kts | 59° |
| 2026-05-05 19:38 | 48.64356 | 2.10231 | 3544 ft | 190 kts | 59° |
| 2026-05-05 19:39 | 48.64965 | 2.11937 | 3316 ft | 185 kts | 59° |
| 2026-05-05 19:39 | 48.65586 | 2.13673 | 3060 ft | 185 kts | 59° |
| 2026-05-05 19:39 | 48.66187 | 2.15359 | 2828 ft | 183 kts | 58° |
| 2026-05-05 19:39 | 48.66783 | 2.17032 | 2578 ft | 174 kts | 59° |
| 2026-05-05 19:40 | 48.67332 | 2.18575 | 2367 ft | 155 kts | 58° |
| 2026-05-05 19:40 | 48.67813 | 2.19928 | 2143 ft | 139 kts | 58° |
| 2026-05-05 19:40 | 48.68258 | 2.21175 | 1950 ft | 132 kts | 58° |
| 2026-05-05 19:40 | 48.68689 | 2.22385 | 1781 ft | 130 kts | 57° |
| 2026-05-05 19:41 | 48.69114 | 2.23577 | 1610 ft | 128 kts | 56° |
| 2026-05-05 19:41 | 48.69539 | 2.24771 | 1430 ft | 129 kts | 56° |
| 2026-05-05 19:41 | 48.69965 | 2.25968 | 1246 ft | 129 kts | 57° |
| 2026-05-05 19:41 | 48.70389 | 2.27162 | 1059 ft | 129 kts | 58° |
| 2026-05-05 19:42 | 48.70818 | 2.28371 | 902 ft | 128 kts | 59° |
| 2026-05-05 19:42 | 48.71245 | 2.29592 | 726 ft | 131 kts | 59° |
| 2026-05-05 19:42 | 48.71671 | 2.30794 | 559 ft | 133 kts | 58° |
| 2026-05-05 19:42 | 48.72104 | 2.32014 | 359 ft | 131 kts | 58° |
| 2026-05-05 19:43 | 48.72525 | 2.33176 | 295 ft | 113 kts | 58° |
| 2026-05-05 19:43 | 48.72813 | 2.33983 | 296 ft | 60 kts | 62° |
| 2026-05-05 19:43 | 48.72955 | 2.34402 | 292 ft | 31 kts | 65° |
| 2026-05-05 19:43 | 48.72993 | 2.34586 | 296 ft | 3 kts | 74° |
| 2026-05-05 19:44 | 48.73006 | 2.34659 | 291 ft | 10 kts | 77° |
| 2026-05-05 19:44 | 48.73011 | 2.34732 | 291 ft | 5 kts | 85° |
| 2026-05-05 19:44 | 48.73014 | 2.34794 | 292 ft | 4 kts | 85° |
| 2026-05-05 19:44 | 48.73020 | 2.34852 | 295 ft | 11 kts | 80° |
| 2026-05-05 19:45 | 48.73030 | 2.34951 | 291 ft | 7 kts | 82° |
| 2026-05-05 19:45 | 48.73034 | 2.34999 | 291 ft | 7 kts | 82° |
| 2026-05-05 19:45 | 48.73037 | 2.35164 | 292 ft | 17 kts | 102° |
| 2026-05-05 19:45 | 48.73018 | 2.35313 | 295 ft | 12 kts | 88° |
| 2026-05-05 19:46 | 48.73036 | 2.35401 | 295 ft | 6 kts | 61° |
| 2026-05-05 19:46 | 48.73070 | 2.35484 | 293 ft | 11 kts | 58° |
| 2026-05-05 19:46 | 48.73096 | 2.35563 | 294 ft | 6 kts | 84° |
| 2026-05-05 19:46 | 48.73080 | 2.35612 | 294 ft | 10 kts | 124° |
| 2026-05-05 19:47 | 48.73088 | 2.35733 | 296 ft | 9 kts | 60° |
| 2026-05-05 19:47 | 48.73116 | 2.35795 | 291 ft | 6 kts | 54° |
| 2026-05-05 19:47 | 48.73113 | 2.35842 | 291 ft | 3 kts | 129° |
| 2026-05-05 19:47 | 48.73100 | 2.35858 | 293 ft | 3 kts | 141° |
| 2026-05-05 19:48 | 48.73081 | 2.35883 | 291 ft | 0 kts | 136° |
| 2026-05-05 19:48 | 48.73078 | 2.35887 | 291 ft | 1 kts | 135° |
| 2026-05-05 19:48 | 48.73072 | 2.35897 | 294 ft | 0 kts | 134° |